createdAt,value
2019-04-26T00:01:27.634Z,95122.86
2019-04-26T00:06:32.473Z,95119.00
2019-04-26T00:11:41.596Z,95116.97
2019-04-26T00:16:48.007Z,95109.94
2019-04-26T00:21:53.821Z,95114.59
2019-04-26T00:26:58.713Z,95110.72
2019-04-26T00:32:04.493Z,95103.36
2019-04-26T00:37:10.119Z,95099.84
2019-04-26T00:42:15.208Z,95093.67
2019-04-26T00:47:23.223Z,95098.03
2019-04-26T00:52:29.197Z,95091.55
2019-04-26T00:57:34.688Z,95096.34
2019-04-26T01:02:40.894Z,95094.20
2019-04-26T01:07:47.235Z,95105.79
2019-04-26T01:12:51.808Z,95105.59
2019-04-26T01:17:56.593Z,95093.78
2019-04-26T01:23:04.214Z,95095.05
2019-04-26T01:28:11.844Z,95094.05
2019-04-26T01:33:18.751Z,95088.57
2019-04-26T01:38:25.635Z,95082.20
2019-04-26T01:43:49.864Z,95087.81
2019-04-26T01:49:00.155Z,95081.81
2019-04-26T01:54:05.143Z,95075.94
2019-04-26T01:59:12.685Z,95072.77
2019-04-26T02:04:17.452Z,95075.77
2019-04-26T02:09:23.035Z,95078.70
2019-04-26T02:14:27.671Z,95079.19
2019-04-26T02:19:34.017Z,95074.48
2019-04-26T02:24:40.429Z,95076.16
2019-04-26T02:29:45.078Z,95070.95
2019-04-26T02:34:49.800Z,95056.44
2019-04-26T02:39:55.828Z,95062.24
2019-04-26T02:45:08.627Z,95053.44
2019-04-26T02:50:17.932Z,95064.05
2019-04-26T02:55:38.829Z,95057.23
2019-04-26T03:00:41.334Z,95063.19
2019-04-26T03:05:47.210Z,95064.17
2019-04-26T03:10:54.779Z,95061.25
2019-04-26T03:16:05.704Z,95063.11
2019-04-26T03:21:22.163Z,95062.30
2019-04-26T03:26:43.362Z,95057.81
2019-04-26T03:32:16.117Z,95064.45
2019-04-26T03:37:28.464Z,95080.48
2019-04-26T03:42:42.902Z,95086.56
2019-04-26T03:47:54.217Z,95093.20
2019-04-26T03:53:20.050Z,95096.03
2019-04-26T03:58:36.602Z,95106.22
2019-04-26T04:03:47.985Z,95100.27
2019-04-26T04:09:09.900Z,95105.91
2019-04-26T04:14:23.319Z,95105.66
2019-04-26T04:20:16.146Z,95100.04
2019-04-26T04:25:32.639Z,95092.72
2019-04-26T04:30:44.021Z,95105.01
2019-04-26T04:35:52.866Z,95105.62
2019-04-26T04:41:13.570Z,95108.47
2019-04-26T04:46:49.141Z,95105.56
2019-04-26T04:52:07.415Z,95119.95
2019-04-26T04:57:17.762Z,95118.48
2019-04-26T05:02:54.907Z,95117.92
2019-04-26T05:08:17.113Z,95116.82
2019-04-26T05:13:33.571Z,95115.91
2019-04-26T05:18:55.839Z,95117.86
2019-04-26T05:24:03.704Z,95119.16
2019-04-26T05:29:42.248Z,95121.06
2019-04-26T05:35:06.605Z,95121.30
2019-04-26T05:40:41.464Z,95122.05
2019-04-26T05:46:22.357Z,95124.85
2019-04-26T05:52:02.148Z,95127.88
2019-04-26T05:57:13.966Z,95125.67
2019-04-26T06:03:04.471Z,95124.92
2019-04-26T06:08:17.115Z,95122.47
2019-04-26T06:14:14.608Z,95126.61
2019-04-26T06:19:43.974Z,95128.40
2019-04-26T06:25:07.395Z,95127.16
2019-04-26T06:30:16.471Z,95128.64
2019-04-26T06:35:24.366Z,95122.72
2019-04-26T06:40:41.672Z,95119.88
2019-04-26T06:45:58.587Z,95121.86
2019-04-26T06:51:23.490Z,95113.45
2019-04-26T06:56:29.317Z,95112.08
2019-04-26T07:01:36.882Z,95107.80
2019-04-26T07:06:56.046Z,95105.29
2019-04-26T07:12:28.935Z,95104.82
2019-04-26T07:17:51.242Z,95091.42
2019-04-26T07:23:01.049Z,95089.09
2019-04-26T07:28:15.592Z,95093.23
2019-04-26T07:33:52.731Z,95088.16
2019-04-26T07:39:19.883Z,95086.00
2019-04-26T07:44:30.768Z,95077.31
2019-04-26T07:50:14.515Z,95071.25
2019-04-26T07:55:30.864Z,95072.63
2019-04-26T08:00:45.211Z,95064.40
2019-04-26T08:05:55.492Z,95079.04
2019-04-26T08:11:20.996Z,95076.52
2019-04-26T08:16:30.426Z,95072.13
2019-04-26T08:21:42.490Z,95074.95
2019-04-26T08:26:49.178Z,95073.00
2019-04-26T08:31:57.906Z,95064.84
2019-04-26T08:37:06.682Z,95073.97
2019-04-26T08:42:20.031Z,95073.14
2019-04-26T08:47:26.083Z,95065.76
2019-04-26T08:52:33.275Z,95064.27
2019-04-26T08:57:40.883Z,95062.68
2019-04-26T09:03:11.401Z,95052.15
2019-04-26T09:08:11.435Z,95046.22
2019-04-26T09:13:18.024Z,95047.95
2019-04-26T09:18:22.872Z,95041.00
2019-04-26T09:23:39.606Z,95030.36
2019-04-26T09:28:56.406Z,95022.49
2019-04-26T09:34:02.476Z,95018.88
2019-04-26T09:39:09.848Z,95002.67
2019-04-26T09:44:32.195Z,95002.32
2019-04-26T09:49:41.269Z,94994.19
2019-04-26T09:54:44.954Z,94986.91
2019-04-26T09:59:50.597Z,94981.27
2019-04-26T10:04:57.098Z,94966.47
2019-04-26T10:10:01.860Z,94963.55
2019-04-26T10:15:14.639Z,94949.05
2019-04-26T10:20:19.435Z,94937.84
2019-04-26T10:25:24.091Z,94938.98
2019-04-26T10:30:28.767Z,94930.20
2019-04-26T10:35:34.893Z,94914.67
2019-04-26T10:40:39.640Z,94924.05
2019-04-26T10:45:45.933Z,94909.55
2019-04-26T10:50:50.683Z,94898.19
2019-04-26T10:55:59.840Z,94890.06
2019-04-26T11:01:09.091Z,94890.48
2019-04-26T11:06:13.735Z,94887.61
2019-04-26T11:11:18.481Z,94874.58
2019-04-26T11:16:23.232Z,94876.34
2019-04-26T11:21:28.984Z,94868.26
2019-04-26T11:26:34.697Z,94863.16
2019-04-26T11:31:39.869Z,94854.94
2019-04-26T11:36:44.534Z,94857.30
2019-04-26T11:41:49.148Z,94852.09
2019-04-26T11:46:53.712Z,94847.22
2019-04-26T11:52:02.347Z,94843.47
2019-04-26T11:57:08.175Z,94837.70
2019-04-26T12:02:12.233Z,94837.58
2019-04-26T12:07:23.003Z,94832.92
2019-04-26T12:12:27.588Z,94820.80
2019-04-26T12:17:35.106Z,94812.41
2019-04-26T12:22:39.472Z,94796.47
2019-04-26T12:27:45.476Z,94793.42
2019-04-26T12:32:50.278Z,94788.75
2019-04-26T12:37:55.821Z,94783.17
2019-04-26T12:43:00.460Z,94772.82
2019-04-26T12:48:08.073Z,94770.31
2019-04-26T12:53:12.951Z,94766.52
2019-04-26T12:58:17.590Z,94759.69
2019-04-26T13:03:25.048Z,94747.76
2019-04-26T13:08:29.489Z,94750.73
2019-04-26T13:13:35.760Z,94742.30
2019-04-26T13:18:41.181Z,94740.00
2019-04-26T13:23:48.318Z,94739.10
2019-04-26T13:28:57.148Z,94735.26
2019-04-26T13:34:03.035Z,94727.92
2019-04-26T13:39:13.574Z,94723.23
2019-04-26T13:44:17.768Z,94720.34
2019-04-26T13:49:23.964Z,94716.42
2019-04-26T13:54:28.603Z,94713.56
2019-04-26T13:59:33.188Z,94703.47
2019-04-26T14:04:41.155Z,94702.92
2019-04-26T14:09:44.085Z,94701.90
2019-04-26T14:14:48.722Z,94700.52
2019-04-26T14:19:53.428Z,94695.01
2019-04-26T14:24:59.749Z,94689.67
2019-04-26T14:30:08.289Z,94690.06
2019-04-26T14:35:15.757Z,94682.02
2019-04-26T14:40:19.498Z,94684.93
2019-04-26T14:45:24.298Z,94685.75
2019-04-26T14:50:32.130Z,94683.60
2019-04-26T14:55:35.315Z,94683.16
2019-04-26T15:00:43.848Z,94672.19
2019-04-26T15:05:59.176Z,94673.27
2019-04-26T15:11:04.576Z,94666.25
2019-04-26T15:16:11.668Z,94669.21
2019-04-26T15:21:15.741Z,94668.99
2019-04-26T15:26:24.333Z,94664.42
2019-04-26T15:31:26.576Z,94665.83
2019-04-26T15:36:31.106Z,94662.47
2019-04-26T15:41:47.091Z,94652.64
2019-04-26T15:47:05.992Z,94658.50
2019-04-26T15:52:10.586Z,94653.02
2019-04-26T15:57:15.728Z,94652.99
2019-04-26T16:02:24.626Z,94647.17
2019-04-26T16:07:28.867Z,94653.91
2019-04-26T16:12:32.937Z,94642.27
2019-04-26T16:17:40.231Z,94641.77
2019-04-26T16:22:44.979Z,94636.20
2019-04-26T16:27:51.221Z,94633.94
2019-04-26T16:33:10.347Z,94628.13
2019-04-26T16:38:34.552Z,94630.46
2019-04-26T16:43:44.567Z,94624.99
2019-04-26T16:48:45.703Z,94616.37
2019-04-26T16:54:03.760Z,94622.61
2019-04-26T16:58:56.359Z,94623.64
2019-04-26T17:04:00.904Z,94622.33
2019-04-26T17:09:07.718Z,94619.77
2019-04-26T17:14:13.377Z,94619.53
2019-04-26T17:19:19.835Z,94616.75
2019-04-26T17:24:43.828Z,94617.27
2019-04-26T17:29:47.023Z,94617.59
2019-04-26T17:34:52.191Z,94618.94
2019-04-26T17:39:58.059Z,94630.17
2019-04-26T17:45:06.881Z,94635.23
2019-04-26T17:50:10.931Z,94639.47
2019-04-26T17:55:15.683Z,94647.41
2019-04-26T18:00:26.877Z,94651.47
2019-04-26T18:05:41.983Z,94653.89
2019-04-26T18:10:41.414Z,94660.28
2019-04-26T18:15:46.913Z,94664.73
2019-04-26T18:21:06.258Z,94670.77
2019-04-26T18:26:10.875Z,94674.51
2019-04-26T18:31:21.360Z,94681.93
2019-04-26T18:36:23.494Z,94688.94
2019-04-26T18:41:28.997Z,94695.38
2019-04-26T18:46:40.517Z,94697.75
2019-04-26T18:51:48.023Z,94701.33
2019-04-26T18:56:50.424Z,94703.72
2019-04-26T19:01:55.156Z,94703.06
2019-04-26T19:06:59.718Z,94706.05
2019-04-26T19:12:05.127Z,94712.83
2019-04-26T19:17:14.485Z,94710.53
2019-04-26T19:22:20.865Z,94712.81
2019-04-26T19:27:26.913Z,94710.25
2019-04-26T19:32:35.475Z,94712.91
2019-04-26T19:37:38.166Z,94715.23
2019-04-26T19:42:42.712Z,94704.20
2019-04-26T19:48:03.841Z,94711.03
2019-04-26T19:53:10.320Z,94707.03
2019-04-26T19:58:20.485Z,94703.50
2019-04-26T20:03:24.329Z,94700.53
2019-04-26T20:08:29.472Z,94698.99
2019-04-26T20:13:34.120Z,94698.17
2019-04-26T20:18:39.793Z,94703.50
2019-04-26T20:23:47.591Z,94700.83
2019-04-26T20:28:53.332Z,94700.53
2019-04-26T20:33:57.957Z,94705.39
2019-04-26T20:39:02.592Z,94708.15
2019-04-26T20:44:10.121Z,94690.52
2019-04-26T20:49:14.913Z,94690.52
2019-04-26T20:54:19.716Z,94703.77
2019-04-26T20:59:24.423Z,94704.39
2019-04-26T21:04:38.157Z,94704.50
2019-04-26T21:09:36.446Z,94708.25
2019-04-26T21:14:44.591Z,94708.25
2019-04-26T21:19:49.788Z,94724.46
2019-04-26T21:25:04.634Z,94715.83
2019-04-26T21:30:22.389Z,94723.75
2019-04-26T21:35:31.503Z,94723.75
2019-04-26T21:40:45.079Z,94718.64
2019-04-26T21:45:49.649Z,94718.22
2019-04-26T21:50:54.277Z,94714.33
2019-04-26T21:55:58.847Z,94714.78
2019-04-26T22:01:05.134Z,94715.99
2019-04-26T22:06:11.314Z,94720.70
2019-04-26T22:11:19.973Z,94723.34
2019-04-26T22:16:40.204Z,94725.62
2019-04-26T22:22:05.777Z,94729.97
2019-04-26T22:27:08.629Z,94719.09
2019-04-26T22:32:15.978Z,94720.66
2019-04-26T22:37:29.569Z,94718.52
2019-04-26T22:42:27.364Z,94713.88
2019-04-26T22:47:40.694Z,94711.52
2019-04-26T22:52:39.738Z,94712.14
2019-04-26T22:57:45.403Z,94701.73
2019-04-26T23:02:50.562Z,94702.56
2019-04-26T23:07:59.347Z,94703.20
2019-04-26T23:13:07.595Z,94695.76
2019-04-26T23:18:27.243Z,94692.20
2019-04-26T23:23:32.095Z,94686.75
2019-04-26T23:28:37.109Z,94685.08
2019-04-26T23:33:42.962Z,94684.39
2019-04-26T23:38:47.567Z,94683.05
2019-04-26T23:43:56.856Z,94676.86
2019-04-26T23:48:58.376Z,94673.47
2019-04-26T23:54:03.291Z,94667.39
2019-04-26T23:59:07.980Z,94664.48
